Time;durP1;ratioP1;P1;durP2;ratioP2;P2;SDS_P1;SDS_P2;PMS_P1;PMS_P2;Temp;Humidity;BMP_temperature;BMP_pressure;BME280_temperature;BME280_humidity;BME280_pressure;Samples;Min_cycle;Max_cycle;Signal;HPM_P1;HPM_P2
2024/01/12 00:01:21;;;;;;;0.50;0.50;;;0.20;99.90;;;;;;5082521;28;20293;-80
2024/01/12 00:03:46;;;;;;;1.27;1.15;;;0.20;99.90;;;;;;5103390;28;20097;-80
2024/01/12 00:06:12;;;;;;;0.68;0.68;;;0.20;99.90;;;;;;5108244;28;20471;-81
2024/01/12 00:08:38;;;;;;;1.70;1.60;;;0.20;99.90;;;;;;5099465;28;20457;-80
2024/01/12 00:11:09;;;;;;;0.93;0.83;;;0.20;99.90;;;;;;5100195;28;20409;-80
2024/01/12 00:13:35;;;;;;;0.30;0.30;;;0.20;99.90;;;;;;5102860;28;20039;-81
2024/01/12 00:16:07;;;;;;;0.40;0.40;;;0.20;99.90;;;;;;5102252;28;20393;-81
2024/01/12 00:18:34;;;;;;;0.50;0.50;;;0.20;99.90;;;;;;5106756;28;20099;-81
2024/01/12 00:20:59;;;;;;;0.20;0.20;;;0.20;99.90;;;;;;5099311;28;20048;-81
2024/01/12 00:23:25;;;;;;;0.10;0.10;;;0.20;99.90;;;;;;5099251;28;20482;-81
2024/01/12 00:25:51;;;;;;;1.20;1.10;;;0.30;99.90;;;;;;5099330;28;20073;-81
2024/01/12 00:28:16;;;;;;;0.38;0.38;;;0.30;99.90;;;;;;5098993;28;20051;-81
2024/01/12 00:30:45;;;;;;;0.90;0.77;;;0.30;99.90;;;;;;5097940;28;20074;-81
2024/01/12 00:33:12;;;;;;;1.05;0.85;;;0.30;99.90;;;;;;5071981;28;20055;-81
2024/01/12 00:35:38;;;;;;;4.55;0.98;;;0.30;99.90;;;;;;5108371;28;20124;-80
2024/01/12 00:38:03;;;;;;;0.82;0.82;;;0.30;99.90;;;;;;5099098;28;20055;-81
2024/01/12 00:40:29;;;;;;;0.83;0.83;;;0.30;99.90;;;;;;5098805;28;20040;-81
2024/01/12 00:42:54;;;;;;;1.13;1.02;;;0.30;99.90;;;;;;5090496;28;20383;-81
2024/01/12 00:45:20;;;;;;;0.10;0.10;;;0.40;99.90;;;;;;5098029;28;20052;-80
2024/01/12 00:47:46;;;;;;;0.57;0.57;;;0.40;99.90;;;;;;5073549;28;20154;-80
2024/01/12 00:50:11;;;;;;;0.28;0.28;;;0.40;99.90;;;;;;5105132;28;20067;-80
2024/01/12 00:52:37;;;;;;;1.55;1.45;;;0.40;99.90;;;;;;5097780;28;20097;-81
2024/01/12 00:55:03;;;;;;;0.40;0.40;;;0.50;99.90;;;;;;5101370;28;20036;-81
2024/01/12 00:57:28;;;;;;;1.42;1.33;;;0.50;99.90;;;;;;5101275;28;20044;-80
2024/01/12 00:59:54;;;;;;;0.30;0.30;;;0.50;99.90;;;;;;5101766;28;20083;-81
2024/01/12 01:02:20;;;;;;;0.30;0.30;;;0.50;99.90;;;;;;5102182;28;20557;-81
2024/01/12 01:04:45;;;;;;;0.20;0.20;;;0.60;99.90;;;;;;5097617;28;20124;-81
2024/01/12 01:07:11;;;;;;;1.02;0.65;;;0.70;99.90;;;;;;5102106;28;20056;-81
2024/01/12 01:09:36;;;;;;;0.00;0.00;;;0.70;99.90;;;;;;5104378;28;20044;-81
2024/01/12 01:12:02;;;;;;;1.10;0.63;;;0.70;99.90;;;;;;5084347;28;20032;-81
2024/01/12 01:14:28;;;;;;;0.10;0.10;;;0.70;99.90;;;;;;5059451;28;20115;-81
2024/01/12 01:16:53;;;;;;;0.38;0.38;;;0.80;99.90;;;;;;5100292;28;20039;-81
2024/01/12 01:19:20;;;;;;;1.55;0.68;;;0.80;99.90;;;;;;5102084;28;20471;-81
2024/01/12 01:21:46;;;;;;;0.10;0.10;;;1.10;99.90;;;;;;5093989;28;20036;-81
2024/01/12 01:24:11;;;;;;;0.40;0.40;;;0.90;99.90;;;;;;5098312;28;20050;-80
2024/01/12 01:26:37;;;;;;;0.93;0.90;;;0.90;99.90;;;;;;5092289;28;20043;-81
2024/01/12 01:29:03;;;;;;;4.15;1.75;;;1.00;99.90;;;;;;5094412;28;20086;-81
2024/01/12 01:31:28;;;;;;;0.20;0.20;;;1.00;99.90;;;;;;5094310;28;20045;-81
2024/01/12 01:33:54;;;;;;;0.13;0.13;;;1.00;99.90;;;;;;5101659;28;20095;-80
2024/01/12 01:36:20;;;;;;;0.45;0.45;;;1.00;99.90;;;;;;5087296;28;21178;-80
2024/01/12 01:38:45;;;;;;;0.35;0.35;;;1.00;99.90;;;;;;5107372;28;20532;-81
2024/01/12 01:41:11;;;;;;;0.20;0.20;;;1.00;99.90;;;;;;5098465;28;20040;-81
2024/01/12 01:43:37;;;;;;;1.88;1.35;;;1.00;99.90;;;;;;5099616;28;20074;-80
2024/01/12 01:46:03;;;;;;;1.42;1.35;;;1.00;99.90;;;;;;5095466;28;20049;-81
2024/01/12 01:48:28;;;;;;;0.10;0.10;;;1.00;99.90;;;;;;5095212;28;20052;-81
2024/01/12 01:50:54;;;;;;;1.02;1.02;;;1.00;99.90;;;;;;5094548;28;20041;-81
2024/01/12 01:53:21;;;;;;;1.27;0.52;;;1.00;99.90;;;;;;5066037;28;20076;-81
2024/01/12 01:55:47;;;;;;;0.30;0.30;;;1.00;99.90;;;;;;5097240;28;20056;-81
2024/01/12 01:58:13;;;;;;;0.73;0.73;;;1.00;99.90;;;;;;5091086;28;20386;-81
2024/01/12 02:00:40;;;;;;;0.00;0.00;;;1.00;99.90;;;;;;5099047;28;20405;-81
2024/01/12 02:03:06;;;;;;;0.00;0.00;;;1.20;99.90;;;;;;5090507;28;20048;-81
2024/01/12 02:05:35;;;;;;;1.45;1.35;;;1.30;99.90;;;;;;5098936;28;20139;-81
2024/01/12 02:08:01;;;;;;;0.40;0.40;;;1.30;99.90;;;;;;5106604;28;20047;-81
2024/01/12 02:10:27;;;;;;;0.10;0.10;;;1.30;99.90;;;;;;5097951;28;20048;-81
2024/01/12 02:12:54;;;;;;;0.20;0.20;;;1.30;99.90;;;;;;5106172;28;20047;-81
2024/01/12 02:15:20;;;;;;;0.10;0.10;;;1.30;99.90;;;;;;5090369;28;20055;-80
2024/01/12 02:17:46;;;;;;;0.05;0.05;;;1.30;99.90;;;;;;5097337;28;20045;-80
2024/01/12 02:20:12;;;;;;;0.00;0.00;;;1.30;99.90;;;;;;5104847;28;20039;-81
2024/01/12 02:22:37;;;;;;;0.10;0.10;;;1.30;99.90;;;;;;5095338;28;20043;-81
2024/01/12 02:25:03;;;;;;;0.20;0.20;;;1.30;99.90;;;;;;5100919;28;20146;-81
2024/01/12 02:27:29;;;;;;;0.00;0.00;;;1.30;91.60;;;;;;5082686;28;20052;-81
2024/01/12 02:29:57;;;;;;;0.32;0.30;;;1.30;77.40;;;;;;5100572;28;20039;-81
2024/01/12 02:32:22;;;;;;;0.68;0.68;;;1.30;50.90;;;;;;5097930;28;20059;-80
2024/01/12 02:34:49;;;;;;;0.00;0.00;;;1.20;34.70;;;;;;5110110;28;20039;-80
2024/01/12 02:37:15;;;;;;;0.43;0.43;;;1.20;26.00;;;;;;5101163;28;20035;-81
2024/01/12 02:39:40;;;;;;;0.00;0.00;;;1.20;13.10;;;;;;5098615;28;20079;-80
2024/01/12 02:42:06;;;;;;;0.15;0.15;;;1.20;15.30;;;;;;5098595;28;20315;-81
2024/01/12 02:44:31;;;;;;;0.00;0.00;;;1.20;1.00;;;;;;5094073;28;20040;-81
2024/01/12 02:46:57;;;;;;;0.00;0.00;;;1.20;1.00;;;;;;5101763;28;20047;-81
2024/01/12 02:49:22;;;;;;;0.00;0.00;;;1.10;1.00;;;;;;5101826;28;20177;-81
2024/01/12 02:51:48;;;;;;;23.80;1.55;;;1.20;1.00;;;;;;5105705;28;20067;-81
2024/01/12 02:54:14;;;;;;;0.32;0.30;;;1.20;1.00;;;;;;5106629;28;20066;-81
2024/01/12 02:56:39;;;;;;;0.35;0.35;;;1.20;1.00;;;;;;5104876;28;20070;-81
2024/01/12 02:59:05;;;;;;;0.00;0.00;;;1.20;1.00;;;;;;5100808;28;20051;-81
2024/01/12 03:01:31;;;;;;;0.00;0.00;;;1.20;1.00;;;;;;5095186;28;20044;-81
2024/01/12 03:03:57;;;;;;;0.08;0.08;;;1.20;1.00;;;;;;5069599;28;20070;-81
2024/01/12 03:06:22;;;;;;;0.10;0.10;;;1.20;1.00;;;;;;5101351;28;20040;-81
2024/01/12 03:08:48;;;;;;;0.17;0.17;;;1.10;1.00;;;;;;5100883;28;20043;-81
2024/01/12 03:11:13;;;;;;;0.52;0.52;;;1.20;1.00;;;;;;5107385;28;20512;-81
2024/01/12 03:13:39;;;;;;;0.38;0.38;;;1.10;1.00;;;;;;5100271;28;20040;-81
2024/01/12 03:16:05;;;;;;;0.43;0.43;;;1.10;1.00;;;;;;5102003;28;20441;-81
2024/01/12 03:18:32;;;;;;;0.52;0.43;;;1.10;1.00;;;;;;5109034;28;20044;-81
2024/01/12 03:20:58;;;;;;;0.00;0.00;;;1.10;1.00;;;;;;5103979;28;20046;-81
2024/01/12 03:23:24;;;;;;;1.73;1.60;;;0.90;99.90;;;;;;5104501;28;20048;-81
2024/01/12 03:25:50;;;;;;;0.32;0.32;;;0.60;99.90;;;;;;5107387;28;20040;-81
2024/01/12 03:28:15;;;;;;;0.52;0.47;;;0.40;99.90;;;;;;5099173;28;20040;-81
2024/01/12 03:30:41;;;;;;;0.10;0.10;;;0.20;99.90;;;;;;5092776;28;20134;-81
2024/01/12 03:33:10;;;;;;;0.20;0.20;;;0.00;99.90;;;;;;5100342;28;20776;-81
2024/01/12 03:35:36;;;;;;;0.65;0.65;;;-0.30;99.90;;;;;;5101376;28;20603;-81
2024/01/12 03:38:02;;;;;;;0.10;0.10;;;-0.40;99.90;;;;;;5105493;28;20477;-81
2024/01/12 03:40:28;;;;;;;0.00;0.00;;;-0.50;99.90;;;;;;5099121;28;20047;-81
2024/01/12 03:42:53;;;;;;;0.10;0.10;;;-0.70;99.90;;;;;;5099423;28;20043;-81
2024/01/12 03:45:19;;;;;;;0.50;0.50;;;-0.80;99.90;;;;;;5092907;28;20048;-81
2024/01/12 03:47:45;;;;;;;0.00;0.00;;;-0.80;99.90;;;;;;5098317;28;20044;-81
2024/01/12 03:50:10;;;;;;;0.00;0.00;;;-0.90;99.90;;;;;;5070002;28;20051;-81
2024/01/12 03:52:36;;;;;;;0.20;0.20;;;-0.90;99.90;;;;;;5102691;28;20043;-81
2024/01/12 03:55:02;;;;;;;0.32;0.32;;;-0.80;1.00;;;;;;5103518;28;20038;-81
2024/01/12 03:57:28;;;;;;;0.00;0.00;;;-0.70;1.00;;;;;;5102138;28;20397;-82
2024/01/12 03:59:53;;;;;;;1.38;1.30;;;-0.60;1.00;;;;;;5072199;28;20520;-81
2024/01/12 04:02:19;;;;;;;0.10;0.10;;;-0.50;1.00;;;;;;5069646;28;20044;-81
2024/01/12 04:04:45;;;;;;;0.00;0.00;;;-0.30;1.00;;;;;;5100228;28;20143;-81
2024/01/12 04:07:10;;;;;;;1.00;1.00;;;-0.20;41.80;;;;;;5099984;28;20047;-81
2024/01/12 04:09:36;;;;;;;0.10;0.10;;;0.00;29.90;;;;;;5101659;28;20048;-80
2024/01/12 04:12:02;;;;;;;0.32;0.32;;;0.10;47.80;;;;;;5100762;28;20039;-81
2024/01/12 04:14:28;;;;;;;0.93;0.90;;;0.30;96.80;;;;;;5097691;28;20100;-81
2024/01/12 04:16:53;;;;;;;0.35;0.35;;;0.40;99.90;;;;;;5076152;28;20127;-81
2024/01/12 04:19:19;;;;;;;1.52;1.42;;;0.50;99.90;;;;;;5102004;28;20632;-81
2024/01/12 04:21:45;;;;;;;0.00;0.00;;;0.60;99.90;;;;;;5095076;28;20572;-81
2024/01/12 04:24:11;;;;;;;0.32;0.32;;;0.60;99.90;;;;;;5100122;28;20386;-81
2024/01/12 04:26:37;;;;;;;0.00;0.00;;;0.70;99.90;;;;;;5098090;28;20044;-81
2024/01/12 04:29:04;;;;;;;0.10;0.10;;;0.80;99.90;;;;;;5091417;28;20047;-80
2024/01/12 04:31:29;;;;;;;0.00;0.00;;;0.90;99.90;;;;;;5097482;28;20059;-80
2024/01/12 04:33:55;;;;;;;0.22;0.22;;;1.00;99.90;;;;;;5089642;28;20036;-80
2024/01/12 04:36:22;;;;;;;0.45;0.43;;;1.20;99.90;;;;;;5108127;28;20043;-80
2024/01/12 04:38:48;;;;;;;0.20;0.20;;;1.30;99.90;;;;;;5073173;28;20117;-80
2024/01/12 04:41:14;;;;;;;0.55;0.55;;;1.40;99.90;;;;;;5104384;28;20047;-80
2024/01/12 04:43:39;;;;;;;0.10;0.10;;;1.40;99.90;;;;;;5094291;28;20043;-80
2024/01/12 04:46:05;;;;;;;0.20;0.20;;;1.50;99.90;;;;;;5101441;28;20097;-80
2024/01/12 04:48:31;;;;;;;0.15;0.15;;;1.60;1.00;;;;;;5102029;28;20048;-80
2024/01/12 04:50:56;;;;;;;0.28;0.20;;;1.70;1.00;;;;;;5102504;28;20047;-80
2024/01/12 04:53:22;;;;;;;0.20;0.20;;;1.70;1.00;;;;;;5098019;28;20040;-80
2024/01/12 04:55:49;;;;;;;0.00;0.00;;;1.80;1.00;;;;;;5063066;28;20082;-80
2024/01/12 04:58:14;;;;;;;0.00;0.00;;;1.80;1.00;;;;;;5098593;28;20293;-80
2024/01/12 05:00:40;;;;;;;0.00;0.00;;;1.80;1.00;;;;;;5085203;28;20083;-80
2024/01/12 05:03:06;;;;;;;0.00;0.00;;;1.90;1.00;;;;;;5077686;28;20044;-80
2024/01/12 05:05:31;;;;;;;0.10;0.10;;;1.80;1.00;;;;;;5098844;28;20084;-80
2024/01/12 05:07:57;;;;;;;0.28;0.28;;;1.80;1.00;;;;;;5095967;28;20135;-80
2024/01/12 05:10:22;;;;;;;1.95;1.45;;;1.80;1.00;;;;;;5101255;28;20458;-80
2024/01/12 05:12:48;;;;;;;0.00;0.00;;;1.80;1.00;;;;;;5109332;28;20051;-80
2024/01/12 05:15:14;;;;;;;0.00;0.00;;;1.70;1.00;;;;;;5098444;28;20497;-81
2024/01/12 05:17:39;;;;;;;0.30;0.30;;;1.60;1.00;;;;;;5098212;28;20521;-81
2024/01/12 05:20:06;;;;;;;0.38;0.38;;;1.60;1.00;;;;;;5102331;28;20039;-81
2024/01/12 05:22:33;;;;;;;0.08;0.08;;;1.50;1.00;;;;;;5102539;28;20131;-81
2024/01/12 05:24:59;;;;;;;0.20;0.20;;;1.50;1.00;;;;;;5093884;28;20060;-81
2024/01/12 05:27:25;;;;;;;0.00;0.00;;;1.40;1.00;;;;;;5111284;28;20050;-81
2024/01/12 05:29:51;;;;;;;0.00;0.00;;;1.40;1.00;;;;;;5098301;28;20043;-81
2024/01/12 05:32:16;;;;;;;0.00;0.00;;;1.40;99.90;;;;;;5102009;28;20047;-81
2024/01/12 05:34:42;;;;;;;1.25;1.15;;;1.30;99.90;;;;;;5104228;28;20608;-81
2024/01/12 05:37:07;;;;;;;0.30;0.28;;;1.30;99.90;;;;;;5096930;28;20043;-81
2024/01/12 05:39:33;;;;;;;0.00;0.00;;;1.20;99.90;;;;;;5098552;28;20124;-80
2024/01/12 05:41:58;;;;;;;0.10;0.10;;;1.20;99.90;;;;;;5102152;28;20047;-81
2024/01/12 05:44:24;;;;;;;0.08;0.08;;;1.00;99.90;;;;;;5102369;28;20059;-81
2024/01/12 05:46:50;;;;;;;1.85;1.75;;;1.00;99.90;;;;;;5102660;28;20039;-81
2024/01/12 05:49:15;;;;;;;0.43;0.43;;;1.00;99.90;;;;;;5102520;28;20044;-81
2024/01/12 05:51:41;;;;;;;0.00;0.00;;;0.90;99.90;;;;;;5091581;28;20340;-81
2024/01/12 05:54:07;;;;;;;0.47;0.47;;;0.90;99.90;;;;;;5105774;28;20043;-81
2024/01/12 05:56:32;;;;;;;0.10;0.10;;;0.90;99.90;;;;;;5100919;28;20042;-81
2024/01/12 05:58:58;;;;;;;0.17;0.17;;;0.90;99.90;;;;;;5103990;28;20043;-81
2024/01/12 06:01:23;;;;;;;0.65;0.57;;;0.90;99.90;;;;;;5101960;28;20044;-81
2024/01/12 06:03:49;;;;;;;0.98;0.98;;;1.00;99.90;;;;;;5102123;28;20104;-80
2024/01/12 06:06:14;;;;;;;0.00;0.00;;;1.00;99.90;;;;;;5110884;28;20047;-81
2024/01/12 06:08:41;;;;;;;0.17;0.17;;;1.00;99.90;;;;;;5102543;28;20143;-81
2024/01/12 06:11:06;;;;;;;50.40;1.40;;;1.10;99.90;;;;;;5103177;28;20052;-81
2024/01/12 06:13:32;;;;;;;0.00;0.00;;;1.10;99.90;;;;;;5098426;28;20059;-80
2024/01/12 06:15:58;;;;;;;0.00;0.00;;;1.10;99.90;;;;;;5111331;28;20042;-81
2024/01/12 06:18:23;;;;;;;0.32;0.28;;;1.10;99.90;;;;;;5102579;28;20040;-81
2024/01/12 06:20:49;;;;;;;1.35;1.25;;;1.10;99.90;;;;;;5102750;28;20035;-81
2024/01/12 06:23:15;;;;;;;0.20;0.20;;;1.10;99.90;;;;;;5114617;28;20048;-81
2024/01/12 06:25:41;;;;;;;0.00;0.00;;;1.20;99.90;;;;;;5063959;28;20050;-80
2024/01/12 06:28:06;;;;;;;1.33;0.40;;;1.30;99.90;;;;;;5105468;28;20044;-80
2024/01/12 06:30:32;;;;;;;0.00;0.00;;;1.30;99.90;;;;;;5104385;28;20131;-80
2024/01/12 06:32:58;;;;;;;0.00;0.00;;;1.30;99.90;;;;;;5087267;28;20083;-81
2024/01/12 06:35:25;;;;;;;3.25;1.48;;;1.30;99.90;;;;;;5105316;28;20047;-81
2024/01/12 06:37:50;;;;;;;0.00;0.00;;;1.40;99.90;;;;;;5104812;28;20050;-81
2024/01/12 06:40:16;;;;;;;0.00;0.00;;;1.40;99.90;;;;;;5084578;28;20111;-81
2024/01/12 06:42:42;;;;;;;0.10;0.10;;;1.40;99.90;;;;;;5091816;28;20497;-81
2024/01/12 06:45:11;;;;;;;0.00;0.00;;;1.40;99.90;;;;;;5095284;28;20043;-81
2024/01/12 06:47:37;;;;;;;0.20;0.20;;;1.40;99.90;;;;;;5092664;28;20044;-81
2024/01/12 06:50:03;;;;;;;0.28;0.28;;;1.40;99.90;;;;;;5098925;28;20220;-81
2024/01/12 06:52:32;;;;;;;0.00;0.00;;;1.50;99.90;;;;;;5067357;28;20048;-81
2024/01/12 06:54:57;;;;;;;0.40;0.40;;;1.50;99.90;;;;;;5060763;28;20943;-82
2024/01/12 06:57:23;;;;;;;0.50;0.50;;;1.50;99.90;;;;;;5070177;28;20122;-81
2024/01/12 06:59:48;;;;;;;0.15;0.15;;;1.80;99.90;;;;;;5100869;28;20123;-81
2024/01/12 07:02:15;;;;;;;0.40;0.40;;;1.60;99.90;;;;;;5079386;28;20428;-81
2024/01/12 07:04:41;;;;;;;0.37;0.37;;;1.60;99.90;;;;;;5082829;28;20571;-80
2024/01/12 07:07:08;;;;;;;0.00;0.00;;;1.60;99.90;;;;;;5101324;28;20185;-81
2024/01/12 07:09:33;;;;;;;0.00;0.00;;;1.70;99.90;;;;;;5099760;28;20066;-81
2024/01/12 07:11:59;;;;;;;0.10;0.10;;;1.90;94.80;;;;;;5103919;28;20044;-81
2024/01/12 07:14:25;;;;;;;0.30;0.30;;;1.70;81.70;;;;;;5088489;28;20125;-80
2024/01/12 07:16:52;;;;;;;0.13;0.13;;;1.70;61.70;;;;;;5087636;28;20056;-81
2024/01/12 07:19:18;;;;;;;0.13;0.13;;;1.70;32.60;;;;;;5109465;28;20054;-81
2024/01/12 07:21:43;;;;;;;0.57;0.53;;;1.70;19.30;;;;;;5101138;28;20040;-81
2024/01/12 07:24:09;;;;;;;0.00;0.00;;;1.70;25.90;;;;;;5096343;28;20039;-81
2024/01/12 07:26:35;;;;;;;0.00;0.00;;;1.70;31.40;;;;;;5105136;28;20058;-81
2024/01/12 07:29:01;;;;;;;0.20;0.20;;;1.70;20.30;;;;;;5100835;28;20039;-81
2024/01/12 07:31:26;;;;;;;0.15;0.15;;;1.70;28.80;;;;;;5104690;28;20509;-81
2024/01/12 07:33:52;;;;;;;0.00;0.00;;;1.70;28.70;;;;;;5105474;28;20050;-81
2024/01/12 07:36:18;;;;;;;0.80;0.80;;;1.70;47.20;;;;;;5103894;28;20443;-81
2024/01/12 07:38:43;;;;;;;1.27;1.17;;;1.70;50.20;;;;;;5109485;28;20040;-81
2024/01/12 07:41:09;;;;;;;1.00;0.95;;;1.70;41.60;;;;;;5076497;28;20051;-81
2024/01/12 07:43:34;;;;;;;0.20;0.20;;;1.70;24.30;;;;;;5105116;28;20413;-81
2024/01/12 07:46:00;;;;;;;0.45;0.45;;;1.70;41.30;;;;;;5105342;28;20040;-81
2024/01/12 07:48:26;;;;;;;4.68;2.00;;;1.70;45.10;;;;;;5093376;28;20490;-81
2024/01/12 07:50:51;;;;;;;0.00;0.00;;;1.70;64.00;;;;;;5078351;28;20103;-81
2024/01/12 07:53:17;;;;;;;0.35;0.35;;;1.70;24.50;;;;;;5108781;28;20502;-81
2024/01/12 07:55:43;;;;;;;0.00;0.00;;;1.70;25.50;;;;;;5095991;28;20099;-81
2024/01/12 07:58:09;;;;;;;0.20;0.20;;;1.80;22.40;;;;;;5103648;28;20054;-81
2024/01/12 08:00:34;;;;;;;0.38;0.38;;;1.90;25.80;;;;;;5098287;28;20039;-81
2024/01/12 08:03:00;;;;;;;1.38;0.45;;;1.70;28.90;;;;;;5093520;28;20043;-81
2024/01/12 08:05:28;;;;;;;0.22;0.22;;;1.80;36.60;;;;;;5074427;28;20079;-81
2024/01/12 08:07:54;;;;;;;0.20;0.20;;;1.80;39.10;;;;;;5072658;28;20045;-81
2024/01/12 08:10:19;;;;;;;0.20;0.20;;;1.80;43.40;;;;;;5074263;28;20512;-81
2024/01/12 08:12:45;;;;;;;0.38;0.38;;;1.80;49.70;;;;;;5071546;28;20044;-81
2024/01/12 08:15:11;;;;;;;0.00;0.00;;;1.80;49.80;;;;;;5083039;28;20074;-81
2024/01/12 08:17:38;;;;;;;0.40;0.40;;;1.80;55.60;;;;;;5084384;28;20044;-81
2024/01/12 08:20:04;;;;;;;1.55;1.15;;;1.90;54.80;;;;;;5073593;28;20040;-81
2024/01/12 08:22:32;;;;;;;0.80;0.80;;;1.90;70.30;;;;;;5077964;28;20048;-81
2024/01/12 08:24:57;;;;;;;0.00;0.00;;;1.90;65.80;;;;;;5073050;28;20398;-81
2024/01/12 08:27:23;;;;;;;0.30;0.25;;;2.20;71.60;;;;;;5076510;28;20047;-81
2024/01/12 08:29:49;;;;;;;0.03;0.03;;;2.00;69.20;;;;;;5076285;28;20040;-81
2024/01/12 08:32:15;;;;;;;0.13;0.13;;;2.00;69.80;;;;;;5079445;28;20041;-81
2024/01/12 08:34:40;;;;;;;1.00;0.90;;;2.00;67.90;;;;;;5083765;28;20527;-82
2024/01/12 08:37:06;;;;;;;0.28;0.28;;;2.00;61.60;;;;;;5077049;28;20052;-81
2024/01/12 08:39:33;;;;;;;0.10;0.10;;;2.00;50.90;;;;;;5083236;28;20048;-81
2024/01/12 08:41:59;;;;;;;0.10;0.10;;;2.00;66.30;;;;;;5072509;28;20195;-81
2024/01/12 08:44:24;;;;;;;0.00;0.00;;;2.10;93.40;;;;;;5087440;28;20078;-81
2024/01/12 08:46:52;;;;;;;0.30;0.30;;;2.20;95.60;;;;;;5076410;28;20059;-81
2024/01/12 08:49:21;;;;;;;2.35;2.15;;;2.20;99.90;;;;;;5082507;28;20047;-81
2024/01/12 08:51:48;;;;;;;0.57;0.40;;;2.20;93.00;;;;;;5079557;28;20044;-81
2024/01/12 08:54:14;;;;;;;0.45;0.22;;;2.30;97.60;;;;;;5069479;28;20063;-81
2024/01/12 08:56:40;;;;;;;0.08;0.08;;;2.40;99.90;;;;;;5071940;28;20414;-81
2024/01/12 08:59:06;;;;;;;0.00;0.00;;;2.40;99.90;;;;;;5076575;28;20056;-81
2024/01/12 09:01:31;;;;;;;0.10;0.10;;;2.50;99.90;;;;;;5058497;28;20130;-82
2024/01/12 09:03:57;;;;;;;0.20;0.20;;;2.50;99.90;;;;;;5062694;28;20057;-82
2024/01/12 09:06:23;;;;;;;0.08;0.08;;;2.50;93.00;;;;;;5097518;28;20057;-82
2024/01/12 09:08:50;;;;;;;0.85;0.85;;;2.50;90.60;;;;;;5109253;28;20048;-82
2024/01/12 09:11:16;;;;;;;0.20;0.20;;;2.60;80.60;;;;;;5099927;28;20478;-82
2024/01/12 09:13:41;;;;;;;0.05;0.05;;;2.60;61.60;;;;;;5091474;28;20078;-81
2024/01/12 09:16:11;;;;;;;0.00;0.00;;;2.60;50.90;;;;;;5111033;28;20043;-82
2024/01/12 09:18:37;;;;;;;0.20;0.20;;;2.60;42.00;;;;;;5098593;28;20088;-82
2024/01/12 09:21:03;;;;;;;0.17;0.17;;;2.70;65.30;;;;;;5102317;28;20208;-81
2024/01/12 09:23:28;;;;;;;0.32;0.32;;;2.70;57.40;;;;;;5095810;28;20056;-82
2024/01/12 09:25:54;;;;;;;0.00;0.00;;;2.70;59.50;;;;;;5066418;28;20069;-82
2024/01/12 09:28:20;;;;;;;0.20;0.20;;;2.80;68.30;;;;;;5079583;28;20040;-82
2024/01/12 09:30:47;;;;;;;0.10;0.10;;;3.40;61.20;;;;;;5088791;28;20066;-81
2024/01/12 09:33:15;;;;;;;0.00;0.00;;;2.90;40.20;;;;;;5095534;28;20051;-82
2024/01/12 09:35:41;;;;;;;0.10;0.10;;;3.00;39.20;;;;;;5064812;28;20059;-82
2024/01/12 09:38:07;;;;;;;0.05;0.05;;;3.00;24.20;;;;;;5097733;28;20035;-82
2024/01/12 09:40:33;;;;;;;0.28;0.28;;;3.00;24.40;;;;;;5096476;28;20070;-83
2024/01/12 09:43:00;;;;;;;1.23;0.77;;;3.10;28.70;;;;;;5098882;28;20043;-83
2024/01/12 09:45:27;;;;;;;0.22;0.20;;;3.10;25.50;;;;;;5095569;28;20059;-83
2024/01/12 09:47:53;;;;;;;3.42;0.63;;;3.20;13.00;;;;;;5089391;28;20043;-83
2024/01/12 09:50:23;;;;;;;2.08;1.10;;;3.30;1.00;;;;;;5098448;28;20060;-83
2024/01/12 09:52:52;;;;;;;0.20;0.20;;;3.40;1.00;;;;;;5097129;28;20040;-83
2024/01/12 09:55:18;;;;;;;0.38;0.38;;;3.40;1.00;;;;;;5099335;28;20072;-81
2024/01/12 09:57:45;;;;;;;0.00;0.00;;;3.40;1.00;;;;;;5099914;28;20129;-81
2024/01/12 10:00:13;;;;;;;0.32;0.32;;;3.50;1.00;;;;;;5072891;28;20153;-82
2024/01/12 10:02:39;;;;;;;0.47;0.47;;;3.50;99.90;;;;;;5087613;28;20054;-82
2024/01/12 10:05:06;;;;;;;0.35;0.35;;;3.50;99.90;;;;;;5107255;28;20055;-82
2024/01/12 10:07:32;;;;;;;0.00;0.00;;;3.60;99.90;;;;;;5102984;28;20792;-82
2024/01/12 10:09:58;;;;;;;0.00;0.00;;;3.60;97.20;;;;;;5090582;28;20107;-81
2024/01/12 10:12:23;;;;;;;0.22;0.22;;;3.70;77.70;;;;;;5065937;28;20050;-82
2024/01/12 10:15:02;;;;;;;0.00;0.00;;;3.80;82.60;;;;;;5064835;28;20095;-82
2024/01/12 10:17:30;;;;;;;0.00;0.00;;;3.90;32.60;;;;;;5071152;28;20074;-82
2024/01/12 10:19:56;;;;;;;0.00;0.00;;;4.00;45.70;;;;;;5098154;28;20051;-82
2024/01/12 10:22:21;;;;;;;0.30;0.22;;;4.10;1.00;;;;;;5097191;28;20119;-82
2024/01/12 10:24:59;;;;;;;0.00;0.00;;;4.30;1.50;;;;;;5104795;28;20405;-82
2024/01/12 10:27:26;;;;;;;0.00;0.00;;;4.40;1.00;;;;;;5080903;28;20051;-82
2024/01/12 10:29:52;;;;;;;0.40;0.40;;;4.50;99.90;;;;;;5076056;28;20048;-82
2024/01/12 10:32:21;;;;;;;0.05;0.05;;;4.60;99.90;;;;;;5099052;28;20051;-83
2024/01/12 10:34:47;;;;;;;0.52;0.52;;;4.70;99.90;;;;;;5086538;28;20047;-82
2024/01/12 10:37:17;;;;;;;0.30;0.30;;;4.70;1.00;;;;;;5101372;28;20036;-83
2024/01/12 10:39:49;;;;;;;0.00;0.00;;;4.70;1.00;;;;;;5062462;28;20047;-83
2024/01/12 10:42:16;;;;;;;0.10;0.10;;;4.80;1.00;;;;;;5058184;28;20074;-83
2024/01/12 10:44:43;;;;;;;0.10;0.10;;;4.80;99.90;;;;;;5103279;28;20044;-83
2024/01/12 10:47:21;;;;;;;0.00;0.00;;;4.90;1.00;;;;;;5059275;28;20044;-83
2024/01/12 10:49:50;;;;;;;2.38;0.85;;;4.90;99.90;;;;;;5093393;28;20050;-83
2024/01/12 10:52:26;;;;;;;0.85;0.85;;;5.00;99.90;;;;;;5057260;28;20052;-83
2024/01/12 10:55:10;;;;;;;0.40;0.40;;;5.00;99.90;;;;;;5097763;28;20039;-83
2024/01/12 10:57:37;;;;;;;0.00;0.00;;;5.00;1.00;;;;;;5091935;28;20050;-83
2024/01/12 11:00:05;;;;;;;1.10;1.00;;;5.10;1.00;;;;;;5099463;28;20055;-84
2024/01/12 11:02:31;;;;;;;0.10;0.10;;;5.10;1.00;;;;;;5090899;28;20052;-83
2024/01/12 11:04:59;;;;;;;0.00;0.00;;;5.00;98.50;;;;;;5077929;28;20056;-83
2024/01/12 11:07:25;;;;;;;0.08;0.08;;;5.00;78.50;;;;;;5107128;28;20514;-83
2024/01/12 11:09:51;;;;;;;0.43;0.43;;;4.90;1.00;;;;;;5097683;28;20044;-84
2024/01/12 11:12:31;;;;;;;0.00;0.00;;;5.00;99.90;;;;;;5053069;28;20055;-84
2024/01/12 11:14:57;;;;;;;0.00;0.00;;;5.00;99.90;;;;;;5069783;28;20055;-84
2024/01/12 11:17:30;;;;;;;0.20;0.20;;;5.00;99.90;;;;;;5098777;28;20044;-84
2024/01/12 11:20:04;;;;;;;0.20;0.20;;;5.10;99.90;;;;;;5096709;28;20412;-83
2024/01/12 11:22:30;;;;;;;0.00;0.00;;;5.20;99.90;;;;;;5094365;28;20040;-83
2024/01/12 11:24:57;;;;;;;0.00;0.00;;;5.30;99.90;;;;;;5097680;28;20058;-84
2024/01/12 11:27:31;;;;;;;0.60;0.32;;;5.20;1.00;;;;;;5092469;28;20839;-84
2024/01/12 11:29:58;;;;;;;0.20;0.20;;;5.30;29.70;;;;;;5066692;28;20465;-84
2024/01/12 11:32:24;;;;;;;0.00;0.00;;;5.20;1.00;;;;;;5074215;28;20409;-84
2024/01/12 11:34:49;;;;;;;0.00;0.00;;;5.20;99.90;;;;;;5060559;28;20040;-84
2024/01/12 11:37:16;;;;;;;0.77;0.70;;;5.30;99.90;;;;;;5093684;28;20048;-84
2024/01/12 11:39:44;;;;;;;0.00;0.00;;;5.50;97.50;;;;;;5093481;28;20097;-85
2024/01/12 11:42:10;;;;;;;0.00;0.00;;;5.60;99.90;;;;;;5092827;28;20135;-84
2024/01/12 11:44:36;;;;;;;0.13;0.13;;;5.70;99.90;;;;;;5086766;28;20040;-84
2024/01/12 11:47:07;;;;;;;32.80;0.95;;;5.60;99.90;;;;;;5093121;28;20113;-84
2024/01/12 11:49:34;;;;;;;0.22;0.22;;;5.70;57.50;;;;;;5094508;28;20067;-85
2024/01/12 11:52:02;;;;;;;0.40;0.40;;;5.60;99.90;;;;;;5093753;28;20498;-84
2024/01/12 11:54:28;;;;;;;1.30;0.43;;;5.60;65.40;;;;;;5083880;28;20048;-85
2024/01/12 11:56:53;;;;;;;0.98;0.65;;;5.50;1.00;;;;;;5093643;28;20032;-85
2024/01/12 11:59:19;;;;;;;0.00;0.00;;;5.50;1.00;;;;;;5085501;28;20101;-84
2024/01/12 12:01:44;;;;;;;0.00;0.00;;;5.40;71.50;;;;;;5090228;28;20694;-84
2024/01/12 12:04:10;;;;;;;0.00;0.00;;;5.40;99.90;;;;;;5078719;28;20045;-84
2024/01/12 12:06:35;;;;;;;0.00;0.00;;;5.40;99.90;;;;;;5053382;28;20142;-85
2024/01/12 12:09:01;;;;;;;0.00;0.00;;;5.40;99.90;;;;;;5097268;28;20044;-86
2024/01/12 12:11:27;;;;;;;1.90;1.17;;;5.50;99.90;;;;;;5088901;28;20378;-86
2024/01/12 12:13:53;;;;;;;0.00;0.00;;;5.60;99.90;;;;;;5086819;28;20068;-86
2024/01/12 12:16:19;;;;;;;0.40;0.30;;;5.70;99.90;;;;;;5091932;28;20093;-85
2024/01/12 12:18:45;;;;;;;0.00;0.00;;;5.70;35.40;;;;;;5065103;28;20044;-85
2024/01/12 12:21:11;;;;;;;0.40;0.40;;;5.70;1.00;;;;;;5092317;28;20063;-85
2024/01/12 12:23:40;;;;;;;0.35;0.32;;;5.80;1.00;;;;;;5090098;28;20049;-86
2024/01/12 12:26:06;;;;;;;1.02;0.63;;;5.90;99.90;;;;;;5089233;28;20043;-86
2024/01/12 12:28:32;;;;;;;0.45;0.25;;;5.90;99.90;;;;;;5094801;28;20303;-84
2024/01/12 12:30:58;;;;;;;0.00;0.00;;;5.90;99.90;;;;;;5092122;28;20035;-84
2024/01/12 12:33:24;;;;;;;0.50;0.40;;;5.90;1.00;;;;;;5092268;28;20039;-86
2024/01/12 12:36:03;;;;;;;0.65;0.65;;;5.80;99.90;;;;;;5089351;28;20094;-86
2024/01/12 12:38:28;;;;;;;0.30;0.30;;;6.50;99.90;;;;;;5086943;28;20478;-85
2024/01/12 12:40:55;;;;;;;0.00;0.00;;;5.70;68.50;;;;;;5094860;28;20517;-86
2024/01/12 12:43:22;;;;;;;1.27;0.52;;;5.70;1.00;;;;;;5074910;28;20040;-86
2024/01/12 12:45:57;;;;;;;0.00;0.00;;;5.70;1.00;;;;;;5086796;28;20048;-86
2024/01/12 12:48:29;;;;;;;2.17;0.90;;;5.70;72.30;;;;;;5089828;28;20046;-86
2024/01/12 12:50:54;;;;;;;2.60;1.55;;;5.60;99.90;;;;;;5091743;28;20047;-85
2024/01/12 12:53:20;;;;;;;1.75;0.57;;;6.60;99.90;;;;;;5089113;28;20036;-85